createdAt,value
2022-12-13T00:00:46.571Z,99551.97
2022-12-13T00:01:27.534Z,99563.50
2022-12-13T00:02:07.570Z,99564.13
2022-12-13T00:02:51.838Z,99575.91
2022-12-13T00:03:31.513Z,99570.31
2022-12-13T00:04:20.528Z,99570.13
2022-12-13T00:05:14.873Z,99571.66
2022-12-13T00:06:09.532Z,99541.91
2022-12-13T00:07:04.500Z,99561.00
2022-12-13T00:07:58.539Z,99565.03
2022-12-13T00:08:52.507Z,99576.81
2022-12-13T00:09:39.507Z,99569.00
2022-12-13T00:10:13.679Z,99565.63
2022-12-13T00:11:13.483Z,99575.03
2022-12-13T00:11:47.523Z,99574.47
2022-12-13T00:12:34.493Z,99565.59
2022-12-13T00:13:08.583Z,99570.53
2022-12-13T00:13:56.492Z,99575.22
2022-12-13T00:14:32.547Z,99575.72
2022-12-13T00:15:13.859Z,99573.66
2022-12-13T00:16:04.573Z,99577.88
2022-12-13T00:16:44.528Z,99577.88
2022-12-13T00:17:24.933Z,99560.00
2022-12-13T00:18:04.471Z,99581.75
2022-12-13T00:18:44.542Z,99580.81
2022-12-13T00:19:25.479Z,99578.75
2022-12-13T00:20:05.585Z,99578.38
2022-12-13T00:20:47.522Z,99573.31
2022-12-13T00:21:30.549Z,99574.88
2022-12-13T00:22:10.480Z,99573.44
2022-12-13T00:22:50.521Z,99577.59
2022-12-13T00:23:31.464Z,99577.31
2022-12-13T00:24:12.559Z,99583.81
2022-12-13T00:24:52.468Z,99576.00
2022-12-13T00:25:32.515Z,99570.06
2022-12-13T00:26:16.497Z,99582.31
2022-12-13T00:26:56.622Z,99579.31
2022-12-13T00:27:36.467Z,99577.72
2022-12-13T00:28:16.776Z,99559.34
2022-12-13T00:28:57.474Z,99568.72
2022-12-13T00:29:37.603Z,99538.00
2022-12-13T00:30:18.456Z,99571.44
2022-12-13T00:31:13.035Z,99578.19
2022-12-13T00:32:01.041Z,99567.94
2022-12-13T00:32:41.519Z,99575.72
2022-12-13T00:33:21.475Z,99577.69
2022-12-13T00:34:01.529Z,99574.19
2022-12-13T00:34:41.476Z,99558.28
2022-12-13T00:35:21.569Z,99565.31
2022-12-13T00:36:02.461Z,99531.47
2022-12-13T00:36:42.506Z,99573.03
2022-12-13T00:37:23.470Z,99571.91
2022-12-13T00:38:03.520Z,99577.91
2022-12-13T00:38:44.464Z,99568.16
2022-12-13T00:39:24.552Z,99558.56
2022-12-13T00:40:04.459Z,99585.41
2022-12-13T00:40:44.496Z,99578.91
2022-12-13T00:41:26.470Z,99587.91
2022-12-13T00:42:06.488Z,99590.06
2022-12-13T00:42:46.471Z,99573.56
2022-12-13T00:43:26.479Z,99581.78
2022-12-13T00:44:07.448Z,99564.34
2022-12-13T00:44:47.531Z,99575.34
2022-12-13T00:45:27.453Z,99567.28
2022-12-13T00:46:07.564Z,99575.44
2022-12-13T00:46:48.442Z,99595.28
2022-12-13T00:47:28.491Z,99576.94
2022-12-13T00:48:08.472Z,99583.03
2022-12-13T00:48:49.566Z,99572.38
2022-12-13T00:49:30.439Z,99577.59
2022-12-13T00:50:11.531Z,99579.47
2022-12-13T00:50:51.446Z,99583.56
2022-12-13T00:51:32.549Z,99584.53
2022-12-13T00:52:12.472Z,99580.81
2022-12-13T00:52:52.478Z,99582.91
2022-12-13T00:53:32.468Z,99585.63
2022-12-13T00:54:12.487Z,99591.63
2022-12-13T00:54:53.449Z,99593.34
2022-12-13T00:55:34.523Z,99596.22
2022-12-13T00:56:21.430Z,99593.75
2022-12-13T00:57:01.475Z,99591.91
2022-12-13T00:57:41.443Z,99604.72
2022-12-13T00:58:21.475Z,99586.75
2022-12-13T00:59:03.467Z,99587.88
2022-12-13T00:59:43.508Z,99587.53
2022-12-13T01:00:24.452Z,99590.44
2022-12-13T01:01:14.606Z,99597.47
2022-12-13T01:01:54.491Z,99601.41
2022-12-13T01:02:34.554Z,99604.06
2022-12-13T01:03:27.467Z,99601.34
2022-12-13T01:04:17.488Z,99572.78
2022-12-13T01:05:11.640Z,99583.03
2022-12-13T01:06:14.977Z,99591.50
2022-12-13T01:07:09.432Z,99595.06
2022-12-13T01:08:03.465Z,99594.06
2022-12-13T01:08:58.454Z,99591.50
2022-12-13T01:09:40.452Z,99593.41
2022-12-13T01:10:20.468Z,99590.19
2022-12-13T01:11:01.444Z,99609.25
2022-12-13T01:11:41.482Z,99600.66
2022-12-13T01:12:21.440Z,99591.63
2022-12-13T01:13:01.553Z,99594.91
2022-12-13T01:13:42.434Z,99589.50
2022-12-13T01:14:23.466Z,99582.13
2022-12-13T01:15:04.457Z,99592.56
2022-12-13T01:15:52.462Z,99576.75
2022-12-13T01:16:32.520Z,99587.72
2022-12-13T01:17:13.542Z,99601.66
2022-12-13T01:17:55.432Z,99596.63
2022-12-13T01:18:35.515Z,99590.34
2022-12-13T01:19:15.419Z,99586.84
2022-12-13T01:19:55.509Z,99609.09
2022-12-13T01:20:35.479Z,99583.94
2022-12-13T01:21:22.528Z,99591.78
2022-12-13T01:22:05.407Z,99583.44
2022-12-13T01:22:46.448Z,99578.66
2022-12-13T01:23:26.398Z,99543.31
2022-12-13T01:24:13.497Z,99570.72
2022-12-13T01:24:53.416Z,99598.50
2022-12-13T01:25:33.512Z,99608.84
2022-12-13T01:26:20.419Z,99600.75
2022-12-13T01:27:00.474Z,99592.16
2022-12-13T01:27:41.399Z,99584.88
2022-12-13T01:28:21.453Z,99583.75
2022-12-13T01:29:01.410Z,99602.09
2022-12-13T01:29:41.510Z,99609.94
2022-12-13T01:30:21.407Z,99597.19
2022-12-13T01:31:03.552Z,99604.94
2022-12-13T01:31:47.416Z,99595.34
2022-12-13T01:32:27.448Z,99601.34
2022-12-13T01:33:14.349Z,99581.19
2022-12-13T01:33:55.432Z,99588.19
2022-12-13T01:34:35.392Z,99586.75
2022-12-13T01:35:15.855Z,99589.91
2022-12-13T01:35:57.394Z,99604.84
2022-12-13T01:36:38.047Z,99594.78
2022-12-13T01:37:19.411Z,99576.25
2022-12-13T01:38:15.428Z,99599.81
2022-12-13T01:38:58.823Z,99579.31
2022-12-13T01:39:39.444Z,99591.34
2022-12-13T01:40:20.396Z,99587.63
2022-12-13T01:41:16.667Z,99585.06
2022-12-13T01:42:06.379Z,99603.50
2022-12-13T01:42:46.411Z,99591.94
2022-12-13T01:43:22.451Z,99597.06
2022-12-13T01:44:13.401Z,99595.06
2022-12-13T01:45:15.844Z,99587.41
2022-12-13T01:46:03.420Z,99602.78
2022-12-13T01:46:41.433Z,99605.50
2022-12-13T01:47:34.405Z,99606.59
2022-12-13T01:48:19.435Z,99594.69
2022-12-13T01:49:20.841Z,99603.28
2022-12-13T01:50:20.398Z,99610.63
2022-12-13T01:51:17.389Z,99610.88
2022-12-13T01:52:16.391Z,99616.81
2022-12-13T01:53:10.387Z,99597.63
2022-12-13T01:53:53.387Z,99610.56
2022-12-13T01:54:52.375Z,99586.09
2022-12-13T01:55:49.364Z,99602.63
2022-12-13T01:57:00.659Z,99618.91
2022-12-13T01:57:56.380Z,99603.56
2022-12-13T01:58:51.384Z,99605.00
2022-12-13T01:59:33.385Z,99622.09
2022-12-13T02:00:15.537Z,99612.28
2022-12-13T02:00:56.436Z,99626.53
2022-12-13T02:01:36.442Z,99623.41
2022-12-13T02:02:19.356Z,99618.13
2022-12-13T02:03:00.448Z,99615.47
2022-12-13T02:03:41.377Z,99610.91
2022-12-13T02:04:44.680Z,99621.56
2022-12-13T02:05:47.472Z,99611.00
2022-12-13T02:06:50.364Z,99620.69
2022-12-13T02:07:26.476Z,99603.69
2022-12-13T02:08:15.386Z,99623.03
2022-12-13T02:08:51.378Z,99607.69
2022-12-13T02:09:38.377Z,99615.78
2022-12-13T02:10:21.392Z,99601.72
2022-12-13T02:11:16.375Z,99604.31
2022-12-13T02:12:10.366Z,99610.56
2022-12-13T02:13:05.357Z,99610.47
2022-12-13T02:13:59.354Z,99615.28
2022-12-13T02:14:54.348Z,99614.53
2022-12-13T02:15:53.418Z,99614.28
2022-12-13T02:16:58.404Z,99626.59
2022-12-13T02:18:12.408Z,99615.63
2022-12-13T02:19:20.386Z,99626.19
2022-12-13T02:20:41.347Z,99617.41
2022-12-13T02:21:36.387Z,99623.66
2022-12-13T02:22:42.427Z,99616.66
2022-12-13T02:23:55.349Z,99595.25
2022-12-13T02:24:45.391Z,99614.28
2022-12-13T02:25:57.397Z,99612.28
2022-12-13T02:27:06.365Z,99604.31
2022-12-13T02:28:43.358Z,99607.41
2022-12-13T02:30:02.351Z,99616.13
2022-12-13T02:31:00.371Z,99600.25
2022-12-13T02:32:15.378Z,99632.00
2022-12-13T02:33:44.321Z,99624.47
2022-12-13T02:34:54.322Z,99625.47
2022-12-13T02:36:08.352Z,99641.47
2022-12-13T02:37:18.207Z,99636.97
2022-12-13T02:38:52.312Z,99641.41
2022-12-13T02:39:52.328Z,99615.22
2022-12-13T02:41:18.316Z,99636.97
2022-12-13T02:42:22.225Z,99631.88
2022-12-13T02:43:25.320Z,99627.63
2022-12-13T02:44:38.325Z,99626.06
2022-12-13T02:45:39.347Z,99605.75
2022-12-13T02:46:36.344Z,99627.63
2022-12-13T02:47:40.331Z,99611.03
2022-12-13T02:48:54.325Z,99616.34
2022-12-13T02:49:53.345Z,99633.53
2022-12-13T02:50:48.330Z,99633.16
2022-12-13T02:51:43.323Z,99637.59
2022-12-13T02:52:41.324Z,99624.66
2022-12-13T02:53:36.310Z,99618.38
2022-12-13T02:54:23.330Z,99627.91
2022-12-13T02:55:04.315Z,99632.47
2022-12-13T02:55:48.403Z,99642.84
2022-12-13T02:56:28.314Z,99625.53
2022-12-13T02:57:08.440Z,99647.81
2022-12-13T02:57:51.311Z,99654.63
2022-12-13T02:58:37.338Z,99646.63
2022-12-13T02:59:19.300Z,99627.25
2022-12-13T02:59:59.360Z,99636.81
2022-12-13T03:01:28.750Z,99627.63
2022-12-13T03:02:31.255Z,99656.66
2022-12-13T03:04:03.328Z,99642.53
2022-12-13T03:05:25.065Z,99650.91
2022-12-13T03:06:38.285Z,99657.13
2022-12-13T03:07:50.388Z,99641.19
2022-12-13T03:08:45.299Z,99665.56
2022-12-13T03:09:56.329Z,99647.41
2022-12-13T03:10:40.330Z,99636.31
2022-12-13T03:11:28.271Z,99651.31
2022-12-13T03:12:43.979Z,99650.13
2022-12-13T03:14:01.263Z,99639.63
2022-12-13T03:14:35.327Z,99645.25
2022-12-13T03:15:41.427Z,99638.03
2022-12-13T03:16:50.371Z,99638.72
2022-12-13T03:17:32.299Z,99673.53
2022-12-13T03:18:34.322Z,99643.31
2022-12-13T03:19:17.292Z,99635.31
2022-12-13T03:20:00.358Z,99647.59
2022-12-13T03:20:40.261Z,99652.63
2022-12-13T03:21:20.295Z,99629.06
2022-12-13T03:21:56.334Z,99627.78
2022-12-13T03:22:43.284Z,99645.31
2022-12-13T03:23:18.580Z,99634.97
2022-12-13T03:24:05.272Z,99635.81
2022-12-13T03:24:39.640Z,99637.38
2022-12-13T03:25:30.834Z,99637.25
2022-12-13T03:26:19.301Z,99641.63
2022-12-13T03:27:13.278Z,99631.44
2022-12-13T03:28:07.293Z,99639.91
2022-12-13T03:29:01.293Z,99629.16
2022-12-13T03:29:55.284Z,99635.66
2022-12-13T03:30:49.264Z,99636.66
2022-12-13T03:31:36.311Z,99649.06
2022-12-13T03:32:10.312Z,99635.84
2022-12-13T03:32:57.259Z,99636.78
2022-12-13T03:33:31.283Z,99650.72
2022-12-13T03:34:22.972Z,99644.91
2022-12-13T03:35:00.773Z,99640.72
2022-12-13T03:36:04.286Z,99630.63
2022-12-13T03:36:45.280Z,99622.94
2022-12-13T03:37:40.265Z,99618.16
2022-12-13T03:38:34.257Z,99644.50
2022-12-13T03:39:28.246Z,99631.03
2022-12-13T03:40:23.243Z,99638.69
2022-12-13T03:41:25.267Z,99621.56
2022-12-13T03:42:06.272Z,99644.75
2022-12-13T03:42:46.289Z,99621.56
2022-12-13T03:43:26.239Z,99628.16
2022-12-13T03:44:11.279Z,99624.88
2022-12-13T03:44:51.255Z,99624.63
2022-12-13T03:45:31.281Z,99633.16
2022-12-13T03:46:12.348Z,99631.22
2022-12-13T03:46:53.037Z,99634.09
2022-12-13T03:47:33.269Z,99636.72
2022-12-13T03:48:13.309Z,99636.16
2022-12-13T03:49:03.238Z,99610.00
2022-12-13T03:49:43.272Z,99632.47
2022-12-13T03:50:26.566Z,99628.78
2022-12-13T03:51:07.314Z,99625.09
2022-12-13T03:51:48.234Z,99637.34
2022-12-13T03:52:28.292Z,99640.16
2022-12-13T03:53:10.269Z,99626.44
2022-12-13T03:54:04.300Z,99625.94
2022-12-13T03:54:45.220Z,99632.09
2022-12-13T03:55:25.303Z,99622.44
2022-12-13T03:56:06.300Z,99618.41
2022-12-13T03:57:00.238Z,99611.34
2022-12-13T03:57:54.236Z,99620.34
2022-12-13T03:58:37.620Z,99621.13
2022-12-13T03:59:18.275Z,99622.19
2022-12-13T03:59:58.254Z,99626.31
2022-12-13T04:00:38.323Z,99637.00
2022-12-13T04:01:22.345Z,99623.13
2022-12-13T04:02:02.537Z,99620.34
2022-12-13T04:02:42.249Z,99598.53
2022-12-13T04:03:36.282Z,99611.09
2022-12-13T04:04:30.229Z,99620.53
2022-12-13T04:05:24.227Z,99610.03
2022-12-13T04:06:22.725Z,99628.41
2022-12-13T04:07:22.538Z,99626.69
2022-12-13T04:08:21.903Z,99607.75
2022-12-13T04:09:02.269Z,99602.38
2022-12-13T04:09:42.255Z,99621.13
2022-12-13T04:10:25.493Z,99608.94
2022-12-13T04:11:25.026Z,99614.81
2022-12-13T04:12:24.207Z,99619.53
2022-12-13T04:13:23.075Z,99617.53
2022-12-13T04:14:03.243Z,99593.75
2022-12-13T04:14:43.309Z,99627.09
2022-12-13T04:15:23.216Z,99618.69
2022-12-13T04:16:03.508Z,99612.94
2022-12-13T04:16:43.220Z,99634.34
2022-12-13T04:17:23.268Z,99622.00
2022-12-13T04:18:03.200Z,99611.22
2022-12-13T04:18:43.413Z,99627.09
2022-12-13T04:19:24.166Z,99623.59
2022-12-13T04:20:04.288Z,99625.19
2022-12-13T04:20:44.255Z,99625.13
2022-12-13T04:21:24.252Z,99621.03
2022-12-13T04:22:05.201Z,99612.94
2022-12-13T04:22:45.240Z,99626.56
2022-12-13T04:23:25.197Z,99625.53
2022-12-13T04:24:05.243Z,99618.22
2022-12-13T04:24:45.246Z,99612.16
2022-12-13T04:25:25.228Z,99620.16
2022-12-13T04:26:06.210Z,99623.19
2022-12-13T04:26:46.624Z,99625.66
2022-12-13T04:27:26.220Z,99620.63
2022-12-13T04:28:06.257Z,99632.47
2022-12-13T04:28:50.989Z,99609.34
2022-12-13T04:29:35.116Z,99636.31
2022-12-13T04:30:16.243Z,99632.91
2022-12-13T04:31:00.230Z,99604.22
2022-12-13T04:31:41.252Z,99625.91
2022-12-13T04:32:25.878Z,99638.34
2022-12-13T04:33:08.200Z,99636.63
2022-12-13T04:34:02.191Z,99629.59
2022-12-13T04:35:01.257Z,99633.91
2022-12-13T04:35:41.208Z,99635.38
2022-12-13T04:36:31.441Z,99642.34
2022-12-13T04:37:13.183Z,99618.78
2022-12-13T04:37:53.231Z,99623.81
2022-12-13T04:38:34.190Z,99628.28
2022-12-13T04:39:22.323Z,99625.72
2022-12-13T04:40:03.186Z,99626.38
2022-12-13T04:40:50.207Z,99626.25
2022-12-13T04:41:50.183Z,99629.78
2022-12-13T04:42:44.195Z,99632.41
2022-12-13T04:43:38.165Z,99646.47
2022-12-13T04:44:36.756Z,99647.47
2022-12-13T04:45:32.227Z,99635.28
2022-12-13T04:46:12.251Z,99641.25
2022-12-13T04:46:52.248Z,99639.47
2022-12-13T04:47:32.175Z,99638.31
2022-12-13T04:48:13.671Z,99659.09
2022-12-13T04:49:11.170Z,99638.63
2022-12-13T04:49:51.228Z,99647.78
2022-12-13T04:50:31.171Z,99632.47
2022-12-13T04:51:11.227Z,99637.34
2022-12-13T04:51:54.646Z,99656.81
2022-12-13T04:52:37.465Z,99648.34
2022-12-13T04:53:22.184Z,99657.72
2022-12-13T04:54:13.121Z,99645.44
2022-12-13T04:55:02.184Z,99639.91
2022-12-13T04:55:44.275Z,99654.81
2022-12-13T04:56:24.196Z,99638.28
2022-12-13T04:57:11.214Z,99667.88
2022-12-13T04:58:05.161Z,99637.59
2022-12-13T04:58:59.199Z,99655.94
2022-12-13T04:59:54.173Z,99638.44
2022-12-13T05:00:48.197Z,99648.69
2022-12-13T05:01:42.185Z,99663.75
2022-12-13T05:02:29.191Z,99652.94
2022-12-13T05:03:03.218Z,99656.09
2022-12-13T05:03:50.156Z,99667.63
2022-12-13T05:04:27.585Z,99650.97
2022-12-13T05:05:19.263Z,99651.25
2022-12-13T05:05:53.290Z,99658.53
2022-12-13T05:06:40.172Z,99654.97
2022-12-13T05:07:14.210Z,99654.97
2022-12-13T05:07:54.231Z,99642.06
2022-12-13T05:08:34.269Z,99643.84
2022-12-13T05:09:14.144Z,99658.78
2022-12-13T05:09:54.237Z,99664.06
2022-12-13T05:10:38.074Z,99655.22
2022-12-13T05:11:19.382Z,99669.66
2022-12-13T05:12:22.800Z,99665.81
2022-12-13T05:13:06.166Z,99657.56
2022-12-13T05:13:47.398Z,99657.41
2022-12-13T05:14:27.182Z,99653.13
2022-12-13T05:15:07.201Z,99675.56
2022-12-13T05:15:52.077Z,99662.22
2022-12-13T05:16:35.237Z,99650.72
2022-12-13T05:17:15.136Z,99644.41
2022-12-13T05:17:55.171Z,99657.56
2022-12-13T05:18:36.176Z,99661.97
2022-12-13T05:19:16.199Z,99655.94
2022-12-13T05:19:56.151Z,99656.94
2022-12-13T05:20:36.264Z,99675.28
2022-12-13T05:21:19.139Z,99658.78
2022-12-13T05:22:01.244Z,99655.41
2022-12-13T05:22:44.141Z,99642.91
2022-12-13T05:23:27.176Z,99652.38
2022-12-13T05:24:10.149Z,99636.84
2022-12-13T05:24:51.199Z,99653.91
2022-12-13T05:25:33.145Z,99649.53
2022-12-13T05:26:13.184Z,99635.81
2022-12-13T05:26:53.130Z,99620.31
2022-12-13T05:27:33.164Z,99618.34
2022-12-13T05:28:27.490Z,99657.56
2022-12-13T05:29:09.207Z,99642.44
2022-12-13T05:29:49.138Z,99648.19
2022-12-13T05:30:29.168Z,99655.09
2022-12-13T05:31:23.188Z,99653.38
2022-12-13T05:32:05.198Z,99653.13
2022-12-13T05:32:45.123Z,99648.59
2022-12-13T05:33:25.512Z,99653.03
2022-12-13T05:34:06.131Z,99643.88
2022-12-13T05:34:46.168Z,99653.53
2022-12-13T05:35:26.168Z,99648.91
2022-12-13T05:36:06.160Z,99650.75
2022-12-13T05:36:47.111Z,99654.47
2022-12-13T05:37:28.260Z,99664.53
2022-12-13T05:38:16.136Z,99653.22
2022-12-13T05:38:57.183Z,99666.50
2022-12-13T05:39:37.133Z,99639.66
2022-12-13T05:40:17.166Z,99653.72
2022-12-13T05:40:57.171Z,99642.28
2022-12-13T05:41:40.431Z,99645.47
2022-12-13T05:42:20.102Z,99670.19
2022-12-13T05:43:02.066Z,99653.72
2022-12-13T05:43:43.695Z,99663.44
2022-12-13T05:44:24.307Z,99652.75
2022-12-13T05:45:04.110Z,99652.69
2022-12-13T05:45:44.240Z,99637.16
2022-12-13T05:46:25.162Z,99646.53
2022-12-13T05:47:06.195Z,99645.72
2022-12-13T05:47:46.094Z,99653.28
2022-12-13T05:48:26.143Z,99653.22
2022-12-13T05:49:06.099Z,99650.03
2022-12-13T05:49:46.138Z,99663.25
2022-12-13T05:50:26.129Z,99653.34
2022-12-13T05:51:09.822Z,99633.56
2022-12-13T05:51:51.126Z,99647.41
2022-12-13T05:52:31.328Z,99657.53
2022-12-13T05:53:12.750Z,99651.50
2022-12-13T05:53:53.609Z,99654.72
2022-12-13T05:54:34.091Z,99653.00
2022-12-13T05:55:15.601Z,99650.59
2022-12-13T05:55:56.124Z,99654.56
2022-12-13T05:56:36.182Z,99650.91
2022-12-13T05:57:16.133Z,99663.59
2022-12-13T05:58:02.172Z,99643.97
2022-12-13T05:58:45.103Z,99661.22
2022-12-13T05:59:25.154Z,99662.00
2022-12-13T06:00:05.087Z,99656.25
2022-12-13T06:00:47.989Z,99656.34
2022-12-13T06:01:28.082Z,99660.69
2022-12-13T06:02:08.270Z,99667.66
2022-12-13T06:02:50.223Z,99669.50
2022-12-13T06:03:30.230Z,99659.97
2022-12-13T06:04:10.090Z,99661.63
2022-12-13T06:04:51.284Z,99652.09
2022-12-13T06:05:32.087Z,99662.56
2022-12-13T06:06:17.465Z,99646.28
2022-12-13T06:06:58.080Z,99654.22
2022-12-13T06:07:39.163Z,99665.38
2022-12-13T06:08:24.777Z,99665.13
2022-12-13T06:09:07.245Z,99646.53
2022-12-13T06:09:49.064Z,99654.75
2022-12-13T06:10:34.437Z,99662.22
2022-12-13T06:11:31.680Z,99660.34
2022-12-13T06:12:32.041Z,99652.06
2022-12-13T06:13:21.460Z,99653.31
2022-12-13T06:14:21.632Z,99651.47
2022-12-13T06:15:00.795Z,99653.16
2022-12-13T06:15:35.765Z,99652.44
2022-12-13T06:16:25.115Z,99659.97
2022-12-13T06:16:59.182Z,99644.97
2022-12-13T06:17:33.900Z,99647.41
2022-12-13T06:18:14.097Z,99665.72
2022-12-13T06:18:48.106Z,99658.78
2022-12-13T06:19:32.106Z,99656.84
2022-12-13T06:20:23.711Z,99652.19
2022-12-13T06:21:07.064Z,99657.53
2022-12-13T06:21:47.120Z,99660.91
2022-12-13T06:22:27.060Z,99654.09
2022-12-13T06:23:08.135Z,99654.44
2022-12-13T06:23:48.068Z,99653.31
2022-12-13T06:24:30.188Z,99652.38
2022-12-13T06:25:31.092Z,99665.59
2022-12-13T06:26:13.387Z,99653.91
2022-12-13T06:26:54.059Z,99650.00
2022-12-13T06:27:35.102Z,99653.06
2022-12-13T06:28:16.077Z,99646.28
2022-12-13T06:28:56.102Z,99656.59
2022-12-13T06:29:36.052Z,99646.53
2022-12-13T06:30:24.128Z,99643.00
2022-12-13T06:31:01.352Z,99651.56
2022-12-13T06:31:48.064Z,99658.47
2022-12-13T06:32:21.723Z,99649.00
2022-12-13T06:33:09.052Z,99648.44
2022-12-13T06:33:46.760Z,99659.31
2022-12-13T06:34:34.052Z,99658.59
2022-12-13T06:35:27.129Z,99653.50
2022-12-13T06:36:09.101Z,99648.88
2022-12-13T06:36:43.147Z,99653.16
2022-12-13T06:37:17.723Z,99636.63
2022-12-13T06:38:01.672Z,99632.66
2022-12-13T06:38:43.686Z,99655.88
2022-12-13T06:39:17.943Z,99656.81
2022-12-13T06:39:58.041Z,99652.19
2022-12-13T06:40:39.133Z,99652.25
2022-12-13T06:41:25.395Z,99655.03
2022-12-13T06:42:11.072Z,99655.63
2022-12-13T06:42:51.049Z,99657.94
2022-12-13T06:43:31.095Z,99644.31
2022-12-13T06:44:12.047Z,99650.34
2022-12-13T06:44:55.779Z,99654.03
2022-12-13T06:45:36.053Z,99650.91
2022-12-13T06:46:17.182Z,99656.47
2022-12-13T06:47:10.122Z,99652.78
2022-12-13T06:47:51.070Z,99643.31
2022-12-13T06:48:31.029Z,99642.31
2022-12-13T06:49:12.088Z,99645.72
2022-12-13T06:49:53.062Z,99642.72
2022-12-13T06:50:33.081Z,99640.34
2022-12-13T06:51:23.045Z,99646.97
2022-12-13T06:52:26.070Z,99660.75
2022-12-13T06:53:00.031Z,99654.50
2022-12-13T06:53:50.055Z,99661.09
2022-12-13T06:54:23.702Z,99657.50
2022-12-13T06:55:11.031Z,99660.16
2022-12-13T06:55:44.743Z,99658.28
2022-12-13T06:56:32.047Z,99649.84
2022-12-13T06:57:05.733Z,99661.09
2022-12-13T06:57:47.059Z,99661.25
2022-12-13T06:58:21.076Z,99654.75
2022-12-13T06:59:01.730Z,99657.94
2022-12-13T06:59:42.326Z,99659.31
2022-12-13T07:00:21.968Z,99654.38
2022-12-13T07:01:14.496Z,99653.94
2022-12-13T07:01:55.059Z,99639.53
2022-12-13T07:02:38.451Z,99648.72
2022-12-13T07:03:20.090Z,99656.47
2022-12-13T07:04:03.071Z,99658.88
2022-12-13T07:04:43.024Z,99659.78
2022-12-13T07:05:23.434Z,99649.59
2022-12-13T07:06:10.004Z,99652.91
2022-12-13T07:06:50.052Z,99654.75
2022-12-13T07:07:31.028Z,99672.25
2022-12-13T07:08:12.138Z,99679.34
2022-12-13T07:09:00.044Z,99669.78
2022-12-13T07:09:40.412Z,99669.13
2022-12-13T07:10:22.529Z,99672.47
2022-12-13T07:11:03.080Z,99676.78
2022-12-13T07:11:47.094Z,99673.28
2022-12-13T07:12:32.794Z,99666.22
2022-12-13T07:13:12.998Z,99675.00
2022-12-13T07:13:53.146Z,99668.84
2022-12-13T07:14:33.011Z,99662.94
2022-12-13T07:15:21.121Z,99652.78
2022-12-13T07:16:01.362Z,99668.50
2022-12-13T07:16:41.069Z,99668.78
2022-12-13T07:17:33.572Z,99675.06
2022-12-13T07:18:15.066Z,99658.47
2022-12-13T07:18:55.005Z,99651.56
2022-12-13T07:19:48.456Z,99679.25
2022-12-13T07:20:23.463Z,99664.16
2022-12-13T07:21:10.006Z,99665.81
2022-12-13T07:21:56.397Z,99661.25
2022-12-13T07:22:55.070Z,99679.69
2022-12-13T07:23:31.694Z,99677.00
2022-12-13T07:24:20.019Z,99675.91
2022-12-13T07:25:00.016Z,99677.59
2022-12-13T07:25:40.062Z,99678.44
2022-12-13T07:26:20.984Z,99679.41
2022-12-13T07:27:02.035Z,99686.91
2022-12-13T07:27:42.976Z,99677.25
2022-12-13T07:28:23.121Z,99682.88
2022-12-13T07:29:04.014Z,99682.28
2022-12-13T07:29:44.279Z,99682.16
2022-12-13T07:30:25.003Z,99677.25
2022-12-13T07:31:09.063Z,99672.50
2022-12-13T07:31:50.010Z,99679.69
2022-12-13T07:32:30.150Z,99673.28
2022-12-13T07:33:11.979Z,99683.53
2022-12-13T07:33:52.056Z,99679.38
2022-12-13T07:34:31.997Z,99684.00
2022-12-13T07:35:12.200Z,99680.69
2022-12-13T07:35:55.283Z,99672.88
2022-12-13T07:36:37.027Z,99683.75
2022-12-13T07:37:30.076Z,99673.94
2022-12-13T07:38:16.059Z,99689.16
2022-12-13T07:39:00.971Z,99680.63
2022-12-13T07:39:41.042Z,99688.13
2022-12-13T07:40:20.981Z,99684.53
2022-12-13T07:41:11.050Z,99685.97
2022-12-13T07:41:44.652Z,99685.44
2022-12-13T07:42:31.997Z,99691.53
2022-12-13T07:43:06.133Z,99696.91
2022-12-13T07:43:55.301Z,99692.88
2022-12-13T07:44:30.100Z,99693.00
2022-12-13T07:45:17.971Z,99690.22
2022-12-13T07:45:53.132Z,99689.97
2022-12-13T07:46:34.080Z,99710.47
2022-12-13T07:47:08.097Z,99692.59
2022-12-13T07:47:41.607Z,99684.53
2022-12-13T07:48:21.975Z,99683.59
2022-12-13T07:48:56.138Z,99692.66
2022-12-13T07:49:35.722Z,99671.94
2022-12-13T07:50:24.049Z,99680.16
2022-12-13T07:51:00.040Z,99686.34
2022-12-13T07:51:42.004Z,99694.09
2022-12-13T07:52:22.059Z,99688.69
2022-12-13T07:53:01.965Z,99685.47
2022-12-13T07:53:42.018Z,99691.41
2022-12-13T07:54:21.975Z,99688.59
2022-12-13T07:55:04.202Z,99696.28
2022-12-13T07:55:44.974Z,99694.41
2022-12-13T07:56:25.000Z,99682.81
2022-12-13T07:57:04.979Z,99698.53
2022-12-13T07:57:44.999Z,99681.03
2022-12-13T07:58:24.981Z,99688.09
2022-12-13T07:59:05.064Z,99694.69
2022-12-13T07:59:45.955Z,99685.84
2022-12-13T08:00:27.049Z,99698.81
2022-12-13T08:01:10.977Z,99698.28
2022-12-13T08:01:52.230Z,99688.22
2022-12-13T08:02:33.000Z,99697.28
2022-12-13T08:03:24.344Z,99700.25
2022-12-13T08:04:06.966Z,99687.94
2022-12-13T08:04:54.756Z,99689.16
2022-12-13T08:05:38.219Z,99703.72
2022-12-13T08:06:19.999Z,99696.63
2022-12-13T08:06:59.953Z,99703.28
2022-12-13T08:07:47.004Z,99709.72
2022-12-13T08:08:20.784Z,99711.78
2022-12-13T08:09:12.030Z,99707.69
2022-12-13T08:09:52.463Z,99707.69
2022-12-13T08:10:41.993Z,99702.78
2022-12-13T08:11:17.377Z,99707.81
2022-12-13T08:12:03.995Z,99713.31
2022-12-13T08:12:37.794Z,99702.00
2022-12-13T08:13:18.172Z,99713.25
2022-12-13T08:13:52.994Z,99713.91
2022-12-13T08:14:26.875Z,99703.44
2022-12-13T08:15:12.318Z,99704.97
2022-12-13T08:15:48.077Z,99708.53
2022-12-13T08:16:26.126Z,99703.84
2022-12-13T08:17:07.952Z,99710.13
2022-12-13T08:17:42.129Z,99712.72
2022-12-13T08:18:16.680Z,99710.25
2022-12-13T08:19:02.462Z,99699.09
2022-12-13T08:19:37.994Z,99709.22
2022-12-13T08:20:12.433Z,99707.28
2022-12-13T08:21:45.421Z,99701.19
2022-12-13T08:22:05.180Z,99712.72
2022-12-13T08:23:01.963Z,99718.94
2022-12-13T08:23:43.917Z,99702.66
2022-12-13T08:24:25.020Z,99702.78
2022-12-13T08:24:58.612Z,99711.13
2022-12-13T08:25:45.940Z,99706.63
2022-12-13T08:26:20.321Z,99713.50
2022-12-13T08:27:08.973Z,99703.59
2022-12-13T08:28:02.954Z,99711.94
2022-12-13T08:28:57.973Z,99712.44
2022-12-13T08:29:44.968Z,99708.47
2022-12-13T08:30:22.982Z,99718.28
2022-12-13T08:31:18.958Z,99723.16
2022-12-13T08:31:53.057Z,99717.81
2022-12-13T08:32:40.964Z,99707.81
2022-12-13T08:33:15.076Z,99711.47
2022-12-13T08:34:02.954Z,99720.00
2022-12-13T08:34:37.040Z,99726.41
2022-12-13T08:35:16.970Z,99721.19
2022-12-13T08:35:56.986Z,99723.69
2022-12-13T08:36:37.922Z,99706.63
2022-12-13T08:37:19.019Z,99720.63
2022-12-13T08:37:58.913Z,99710.19
2022-12-13T08:38:41.019Z,99719.41
2022-12-13T08:39:21.919Z,99719.75
2022-12-13T08:40:03.928Z,99724.53
2022-12-13T08:40:44.956Z,99723.50
2022-12-13T08:41:24.971Z,99718.94
2022-12-13T08:42:16.880Z,99724.09
2022-12-13T08:43:01.961Z,99725.75
2022-12-13T08:43:42.903Z,99712.69
2022-12-13T08:44:22.980Z,99722.63
2022-12-13T08:45:02.901Z,99717.81
2022-12-13T08:45:42.990Z,99720.91
2022-12-13T08:46:23.012Z,99704.16
2022-12-13T08:47:03.118Z,99720.63
2022-12-13T08:47:42.923Z,99721.75
2022-12-13T08:48:23.365Z,99719.44
2022-12-13T08:49:03.930Z,99724.75
2022-12-13T08:49:43.939Z,99720.78
2022-12-13T08:50:25.018Z,99716.13
2022-12-13T08:51:11.444Z,99716.13